N950P ENGM-LFPB
Flight info
| Callsign | N950P |
|---|---|
| Flight time | N/A |
| Altitude | 43000 |
| Route | VIPPA DCT NIROD DCT LAGUM DCT TUSKA DCT SUSET DCT DENOX UZ319 DELOM DCT MOPIL |
| Aircraft | C750/M-SBDE3FGHRWXY/S |
Departure
| Time | 2026-04-30 14:18 |
|---|---|
| Airport | Oslo-Gardermoen International Airport (ENGM) |
Arrival
| Time | N/A |
|---|---|
| Airport | Paris-Le Bourget International Airport (LFPB) |
| Time | Latitude | Longitude | Altitude | Speed | Heading |
|---|---|---|---|---|---|
| 2026-04-30 14:01 | 60.20550 | 11.07890 | 673 ft | 0 kts | 15° |
| 2026-04-30 14:13 | 60.20568 | 11.07939 | 673 ft | 6 kts | 68° |
| 2026-04-30 14:13 | 60.20585 | 11.08035 | 672 ft | 9 kts | 70° |
| 2026-04-30 14:13 | 60.20608 | 11.08167 | 672 ft | 11 kts | 70° |
| 2026-04-30 14:13 | 60.20639 | 11.08333 | 672 ft | 11 kts | 68° |
| 2026-04-30 14:14 | 60.20641 | 11.08341 | 672 ft | 0 kts | 68° |
| 2026-04-30 14:14 | 60.20641 | 11.08340 | 672 ft | 0 kts | 68° |
| 2026-04-30 14:16 | 60.20651 | 11.08377 | 672 ft | 9 kts | 59° |
| 2026-04-30 14:16 | 60.20694 | 11.08567 | 671 ft | 17 kts | 85° |
| 2026-04-30 14:16 | 60.20669 | 11.08622 | 671 ft | 0 kts | 194° |
| 2026-04-30 14:17 | 60.20626 | 11.08601 | 672 ft | 31 kts | 194° |
| 2026-04-30 14:18 | 60.20033 | 11.08271 | 673 ft | 140 kts | 196° |
| 2026-04-30 14:18 | 60.18996 | 11.07612 | 1032 ft | 162 kts | 199° |
| 2026-04-30 14:18 | 60.16837 | 11.05770 | 2514 ft | 176 kts | 221° |
| 2026-04-30 14:19 | 60.15577 | 11.01476 | 4143 ft | 185 kts | 246° |
| 2026-04-30 14:19 | 60.14995 | 10.99010 | 4611 ft | 207 kts | 246° |
| 2026-04-30 14:19 | 60.14339 | 10.96209 | 5077 ft | 235 kts | 245° |
| 2026-04-30 14:20 | 60.13865 | 10.94169 | 5418 ft | 252 kts | 245° |
| 2026-04-30 14:20 | 60.13112 | 10.90876 | 6195 ft | 262 kts | 246° |
| 2026-04-30 14:20 | 60.11575 | 10.84184 | 8255 ft | 269 kts | 246° |
| 2026-04-30 14:21 | 60.10782 | 10.80755 | 9294 ft | 273 kts | 246° |
| 2026-04-30 14:21 | 60.09978 | 10.77273 | 10207 ft | 278 kts | 247° |
| 2026-04-30 14:21 | 60.08208 | 10.69612 | 10718 ft | 330 kts | 247° |
| 2026-04-30 14:22 | 60.07209 | 10.65325 | 11130 ft | 344 kts | 247° |
| 2026-04-30 14:22 | 60.04616 | 10.57257 | 12541 ft | 358 kts | 223° |
| 2026-04-30 14:22 | 60.02452 | 10.54709 | 13243 ft | 368 kts | 204° |
| 2026-04-30 14:23 | 59.97353 | 10.52725 | 14564 ft | 378 kts | 191° |
| 2026-04-30 14:23 | 59.92105 | 10.51008 | 15839 ft | 386 kts | 192° |
| 2026-04-30 14:24 | 59.86763 | 10.49197 | 17110 ft | 393 kts | 191° |
| 2026-04-30 14:24 | 59.84087 | 10.48323 | 17740 ft | 397 kts | 191° |
| 2026-04-30 14:25 | 59.78584 | 10.46486 | 19034 ft | 404 kts | 191° |
| 2026-04-30 14:25 | 59.72978 | 10.44632 | 20323 ft | 412 kts | 191° |
| 2026-04-30 14:26 | 59.67266 | 10.42746 | 21572 ft | 420 kts | 191° |
| 2026-04-30 14:26 | 59.64370 | 10.41792 | 22173 ft | 423 kts | 191° |
| 2026-04-30 14:26 | 59.58501 | 10.39865 | 23315 ft | 431 kts | 191° |
| 2026-04-30 14:27 | 59.55533 | 10.38874 | 23876 ft | 435 kts | 192° |
| 2026-04-30 14:27 | 59.52534 | 10.37842 | 24399 ft | 439 kts | 192° |
| 2026-04-30 14:27 | 59.49514 | 10.36810 | 24948 ft | 442 kts | 192° |
| 2026-04-30 14:28 | 59.43419 | 10.34774 | 26017 ft | 447 kts | 192° |
| 2026-04-30 14:28 | 59.40339 | 10.33736 | 26525 ft | 450 kts | 192° |
| 2026-04-30 14:28 | 59.37240 | 10.32691 | 27030 ft | 453 kts | 192° |
| 2026-04-30 14:28 | 59.34120 | 10.31649 | 27554 ft | 456 kts | 192° |
| 2026-04-30 14:29 | 59.27832 | 10.29552 | 28561 ft | 461 kts | 192° |
| 2026-04-30 14:29 | 59.21463 | 10.27434 | 29540 ft | 467 kts | 191° |
| 2026-04-30 14:30 | 59.11690 | 10.25240 | 30831 ft | 477 kts | 185° |
| 2026-04-30 14:31 | 59.05052 | 10.24305 | 31797 ft | 478 kts | 186° |
| 2026-04-30 14:31 | 58.98435 | 10.23429 | 32979 ft | 475 kts | 185° |
| 2026-04-30 14:31 | 58.95158 | 10.22803 | 33511 ft | 473 kts | 191° |
| 2026-04-30 14:32 | 58.88976 | 10.19028 | 34579 ft | 468 kts | 202° |
| 2026-04-30 14:32 | 58.85933 | 10.16810 | 35097 ft | 467 kts | 202° |
| 2026-04-30 14:32 | 58.82890 | 10.14631 | 35596 ft | 466 kts | 202° |
| 2026-04-30 14:33 | 58.79849 | 10.12451 | 36083 ft | 466 kts | 202° |
| 2026-04-30 14:33 | 58.73781 | 10.08065 | 37017 ft | 465 kts | 202° |
| 2026-04-30 14:33 | 58.70757 | 10.05901 | 37553 ft | 462 kts | 202° |
| 2026-04-30 14:34 | 58.67751 | 10.03757 | 38063 ft | 460 kts | 202° |
| 2026-04-30 14:34 | 58.64762 | 10.01619 | 38563 ft | 457 kts | 202° |
| 2026-04-30 14:34 | 58.61784 | 9.99490 | 38978 ft | 456 kts | 202° |
| 2026-04-30 14:34 | 58.58814 | 9.97374 | 39371 ft | 456 kts | 202° |
| 2026-04-30 14:35 | 58.52849 | 9.93143 | 40078 ft | 458 kts | 201° |
| 2026-04-30 14:35 | 58.49857 | 9.91024 | 40430 ft | 459 kts | 201° |
| 2026-04-30 14:35 | 58.46862 | 9.88905 | 40771 ft | 460 kts | 201° |
| 2026-04-30 14:36 | 58.43856 | 9.86784 | 41120 ft | 461 kts | 201° |
| 2026-04-30 14:36 | 58.40844 | 9.84663 | 41465 ft | 462 kts | 201° |
| 2026-04-30 14:36 | 58.37823 | 9.82540 | 41797 ft | 463 kts | 201° |
| 2026-04-30 14:36 | 58.34793 | 9.80414 | 42150 ft | 464 kts | 201° |
| 2026-04-30 14:37 | 58.31759 | 9.78288 | 42481 ft | 465 kts | 201° |
| 2026-04-30 14:37 | 58.28717 | 9.76162 | 42813 ft | 467 kts | 201° |
| 2026-04-30 14:37 | 58.25664 | 9.74031 | 43138 ft | 467 kts | 200° |
| 2026-04-30 14:37 | 58.22627 | 9.71916 | 43399 ft | 467 kts | 200° |
| 2026-04-30 14:38 | 58.19536 | 9.69766 | 43381 ft | 477 kts | 200° |
| 2026-04-30 14:38 | 58.13199 | 9.65372 | 43410 ft | 493 kts | 200° |
| 2026-04-30 14:39 | 58.06669 | 9.60970 | 43420 ft | 509 kts | 198° |
| 2026-04-30 14:39 | 57.99793 | 9.57118 | 43425 ft | 520 kts | 197° |
| 2026-04-30 14:40 | 57.89371 | 9.51189 | 43420 ft | 524 kts | 197° |
| 2026-04-30 14:40 | 57.82387 | 9.47296 | 43421 ft | 523 kts | 197° |
| 2026-04-30 14:41 | 57.75414 | 9.43370 | 43420 ft | 524 kts | 197° |
| 2026-04-30 14:41 | 57.68430 | 9.39488 | 43421 ft | 524 kts | 197° |
| 2026-04-30 14:42 | 57.61449 | 9.35602 | 43429 ft | 524 kts | 197° |
| 2026-04-30 14:42 | 57.54463 | 9.31741 | 43428 ft | 524 kts | 197° |
| 2026-04-30 14:43 | 57.47467 | 9.27883 | 43437 ft | 525 kts | 197° |
| 2026-04-30 14:43 | 57.40516 | 9.23752 | 43435 ft | 525 kts | 198° |
| 2026-04-30 14:44 | 57.33565 | 9.19602 | 43435 ft | 525 kts | 198° |
| 2026-04-30 14:44 | 57.26629 | 9.15403 | 43448 ft | 525 kts | 198° |
| 2026-04-30 14:45 | 57.19669 | 9.11251 | 43450 ft | 526 kts | 198° |
| 2026-04-30 14:45 | 57.12741 | 9.07109 | 43451 ft | 526 kts | 198° |
| 2026-04-30 14:46 | 57.05774 | 9.02974 | 43452 ft | 526 kts | 198° |
| 2026-04-30 14:46 | 56.98830 | 8.98862 | 43451 ft | 525 kts | 198° |
| 2026-04-30 14:47 | 56.91851 | 8.94749 | 43454 ft | 526 kts | 198° |
| 2026-04-30 14:47 | 56.84876 | 8.90652 | 43467 ft | 526 kts | 198° |
| 2026-04-30 14:48 | 56.77901 | 8.86573 | 43462 ft | 525 kts | 198° |
| 2026-04-30 14:48 | 56.70934 | 8.82514 | 43465 ft | 526 kts | 198° |
| 2026-04-30 14:49 | 56.63963 | 8.78468 | 43475 ft | 525 kts | 198° |
| 2026-04-30 14:49 | 56.56995 | 8.74439 | 43477 ft | 526 kts | 197° |
| 2026-04-30 14:50 | 56.46564 | 8.68438 | 43477 ft | 527 kts | 197° |
| 2026-04-30 14:51 | 56.36085 | 8.62443 | 43476 ft | 527 kts | 197° |
| 2026-04-30 14:52 | 56.25604 | 8.56483 | 43483 ft | 526 kts | 197° |
| 2026-04-30 14:52 | 56.15121 | 8.50555 | 43481 ft | 527 kts | 197° |
| 2026-04-30 14:53 | 56.04613 | 8.44646 | 43477 ft | 528 kts | 197° |
| 2026-04-30 14:54 | 55.90653 | 8.36850 | 43491 ft | 527 kts | 197° |
| 2026-04-30 14:55 | 55.80140 | 8.31016 | 43496 ft | 527 kts | 197° |
| 2026-04-30 14:56 | 55.66121 | 8.23290 | 43501 ft | 527 kts | 197° |
| 2026-04-30 14:57 | 55.55602 | 8.17530 | 43502 ft | 527 kts | 197° |
| 2026-04-30 14:58 | 55.41578 | 8.09900 | 43501 ft | 528 kts | 197° |
| 2026-04-30 14:58 | 55.31036 | 8.04203 | 43502 ft | 528 kts | 197° |
| 2026-04-30 15:00 | 55.13465 | 7.94776 | 43490 ft | 527 kts | 197° |
| 2026-04-30 15:01 | 54.99481 | 7.86982 | 43471 ft | 528 kts | 204° |
| 2026-04-30 15:01 | 54.90048 | 7.77184 | 43491 ft | 530 kts | 212° |
| 2026-04-30 15:02 | 54.83609 | 7.70819 | 43482 ft | 529 kts | 210° |
| 2026-04-30 15:03 | 54.67798 | 7.54649 | 43472 ft | 529 kts | 211° |
| 2026-04-30 15:04 | 54.52010 | 7.38641 | 43465 ft | 523 kts | 211° |
| 2026-04-30 15:06 | 54.36295 | 7.22882 | 43467 ft | 523 kts | 211° |
| 2026-04-30 15:07 | 54.23768 | 7.10434 | 43453 ft | 522 kts | 211° |
| 2026-04-30 15:08 | 54.11186 | 6.98017 | 43438 ft | 522 kts | 210° |
| 2026-04-30 15:09 | 53.96526 | 6.83659 | 43436 ft | 523 kts | 210° |
| 2026-04-30 15:10 | 53.83896 | 6.71384 | 43428 ft | 523 kts | 210° |
| 2026-04-30 15:11 | 53.64947 | 6.53127 | 43413 ft | 523 kts | 210° |
| 2026-04-30 15:13 | 53.49155 | 6.38056 | 43412 ft | 522 kts | 210° |
| 2026-04-30 15:14 | 53.27018 | 6.17149 | 43412 ft | 523 kts | 210° |
| 2026-04-30 15:17 | 52.98459 | 5.90542 | 43400 ft | 521 kts | 209° |
| 2026-04-30 15:19 | 52.73069 | 5.67228 | 43377 ft | 522 kts | 209° |